Flight Track Log - Related Links

Times and Time Zones

All times are in EDT time to prevent confusion due to time zone crossing. See the UAL582 flight status page for this flight to view local times or setup timezone preferences in your user account.


Time Position Orientation Groundspeed Altitude Reporting Facility
EDT Latitude Longitude Course Direction KTS MPH feet Rate Location/Type
Sat 06:54:53 PM 29.9531 -95.3422 23° Northeast 194 223 900  Level Houston Center
Sat 06:55:24 PM 29.9306 -95.3472 191° South 195 224 1,500 1,385 Climbing Houston Center
Sat 06:56:11 PM 29.9317 -95.3978 271° West 243 280 2,700 1,944 Climbing Houston Center
Sat 06:57:00 PM 30.2655 -95.2122 14° North  Level FlightAware Approximate
Sat 06:57:12 PM 29.9975 -95.4092 351° North 247 284 5,000  Level Houston Center
Sat 06:58:00 PM 30.3637 -95.1842 14° North  Level FlightAware Approximate
Sat 06:58:14 PM 30.0717 -95.4022 North 264 304 8,100  Level Houston Center
Sat 06:59:00 PM 30.4559 -95.1365 27° Northeast  Level FlightAware Approximate
Sat 06:59:16 PM 30.1431 -95.3697 21° North 282 325 10,600  Level Houston Center
Sat 07:00:00 PM 30.5467 -95.0850 23° Northeast  Level FlightAware Approximate
Sat 07:00:17 PM 30.2214 -95.3172 30° Northeast 320 368 12,500  Level Houston Center
Sat 07:01:19 PM 30.3039 -95.2617 30° Northeast 340 391 14,700 2,000 Climbing Houston Center
Sat 07:02:20 PM 30.3903 -95.2050 29° Northeast 358 412 16,600 2,000 Climbing Houston Center
Sat 07:03:22 PM 30.4850 -95.1419 30° Northeast 372 428 18,800 2,177 Climbing Houston Center
Sat 07:04:24 PM 30.5928 -95.0689 30° Northeast 375 432 21,100 1,951 Climbing Houston Center
Sat 07:05:25 PM 30.6858 -95.0064 30° Northeast 384 442 22,800 1,610 Climbing Houston Center
Sat 07:06:27 PM 30.7778 -94.9447 30° Northeast 383 441 24,400 1,463 Climbing Houston Center
Sat 07:07:28 PM 30.8722 -94.8808 30° Northeast 393 452 25,800 1,366 Climbing Houston Center
Sat 07:08:30 PM 30.9675 -94.8158 30° Northeast 397 457 27,200 1,317 Climbing Houston Center
Sat 07:09:31 PM 31.0628 -94.7506 30° Northeast 405 466 28,500 1,122 Climbing Houston Center
Sat 07:10:33 PM 31.1589 -94.6831 31° Northeast 408 470 29,500 1,122 Climbing Houston Center
Sat 07:11:34 PM 31.2767 -94.6044 30° Northeast 420 483 30,800 1,268 Climbing Houston Center
Sat 07:12:36 PM 31.3764 -94.5378 30° Northeast 416 479 32,100 1,073 Climbing Houston Center
Sat 07:13:37 PM 31.4728 -94.4711 31° Northeast 411 473 33,000 439 Climbing Houston Center
Sat 07:14:39 PM 31.5683 -94.4064 30° Northeast 403 464 33,000 49 Level Houston Center
Sat 07:15:40 PM 31.6639 -94.3408 30° Northeast 400 460 33,100 634 Climbing Houston Center
Sat 07:16:42 PM 31.7597 -94.2750 30° Northeast 399 459 34,300 927 Climbing Houston Center
Sat 07:17:43 PM 31.8722 -94.1978 30° Northeast 395 455 35,000 341 Climbing Houston Center
Sat 07:18:45 PM 31.9636 -94.1339 31° Northeast 389 448 35,000  Level Houston Center
Sat 07:19:46 PM 32.0558 -94.0703 30° Northeast 385 443 35,000 -49 Level Houston Center
Sat 07:20:48 PM 32.1483 -94.0067 30° Northeast 385 443 34,900  Descending Houston Center
Sat 07:21:49 PM 32.2403 -93.9431 30° Northeast 384 442 35,000 44 Climbing Houston Center
Sat 07:23:03 PM 32.3492 -93.8600 33° Northeast 374 430 35,000  Level Fort Worth Center
Sat 07:24:03 PM 32.4392 -93.7975 30° Northeast 374 430 35,000  Level Fort Worth Center
Sat 07:25:03 PM 32.5333 -93.7322 30° Northeast 374 430 35,000  Level Fort Worth Center
Sat 07:26:03 PM 32.6253 -93.6667 31° Northeast 374 430 35,000  Level Fort Worth Center
Sat 07:27:03 PM 32.7150 -93.6011 32° Northeast 374 430 35,000  Level Fort Worth Center
Sat 07:28:03 PM 32.8092 -93.5378 29° Northeast 374 430 35,000 -50 Level Fort Worth Center
Sat 07:29:03 PM 32.9011 -93.4719 31° Northeast 374 430 34,900 -50 Descending Fort Worth Center
Sat 07:30:03 PM 32.9931 -93.4061 31° Northeast 374 430 34,900 50 Level Fort Worth Center
Sat 07:31:03 PM 33.0825 -93.3400 32° Northeast 374 430 35,000 50 Climbing Fort Worth Center
Sat 07:32:03 PM 33.1744 -93.2764 30° Northeast 374 430 35,000  Level Fort Worth Center
Sat 07:34:14 PM 33.3758 -93.1358 30° Northeast 381 438 35,000  Level Memphis Center
Sat 07:35:14 PM 33.4756 -93.0644 31° Northeast 387 445 35,000  Level Memphis Center
Sat 07:36:14 PM 33.5667 -92.9997 31° Northeast 387 445 35,000  Level Memphis Center
Sat 07:37:14 PM 33.6578 -92.9328 31° Northeast 382 440 35,000  Level Memphis Center
Sat 07:38:14 PM 33.7469 -92.8678 31° Northeast 382 440 35,000  Level Memphis Center
Sat 07:39:14 PM 33.8400 -92.8031 30° Northeast 377 434 35,000  Level Memphis Center
Sat 07:40:14 PM 33.9289 -92.7381 31° Northeast 377 434 35,000  Level Memphis Center
Sat 07:41:14 PM 34.0178 -92.6728 31° Northeast 377 434 35,000  Level Memphis Center
Sat 07:42:14 PM 34.1025 -92.6047 34° Northeast 371 427 35,000  Level Memphis Center
Sat 07:43:14 PM 34.1914 -92.5392 31° Northeast 366 421 35,000  Level Memphis Center
Sat 07:44:14 PM 34.2822 -92.4711 32° Northeast 366 421 35,000  Level Memphis Center
Sat 07:45:14 PM 34.3708 -92.4081 30° Northeast 366 421 35,000  Level Memphis Center
Sat 07:46:14 PM 34.4597 -92.3422 31° Northeast 371 427 35,000  Level Memphis Center
Sat 07:47:14 PM 34.5483 -92.2761 32° Northeast 366 421 35,000  Level Memphis Center
Sat 07:48:14 PM 34.6389 -92.2075 32° Northeast 371 427 35,000  Level Memphis Center
Sat 07:49:14 PM 34.7336 -92.1639 21° North 357 411 35,000  Level Memphis Center
Sat 07:50:14 PM 34.8319 -92.1358 13° North 357 411 35,000  Level Memphis Center
Sat 07:51:14 PM 34.9325 -92.1075 13° North 357 411 35,000  Level Memphis Center
Sat 07:52:15 PM 35.0331 -92.0792 13° North 357 411 35,000  Level Memphis Center
Sat 07:53:14 PM 35.1294 -92.0506 14° North 357 411 35,000  Level Memphis Center
Sat 07:54:14 PM 35.2319 -92.0197 14° North 357 411 35,000  Level Memphis Center
Sat 07:55:14 PM 35.3306 -91.9936 12° North 357 411 35,000  Level Memphis Center
Sat 07:56:14 PM 35.4311 -91.9625 14° North 357 411 35,000  Level Memphis Center
Sat 07:57:14 PM 35.5294 -91.9361 12° North 357 411 35,000  Level Memphis Center
Sat 07:58:14 PM 35.6297 -91.9050 14° North 357 411 35,000  Level Memphis Center
Sat 07:59:14 PM 35.7281 -91.8786 12° North 357 411 35,000  Level Memphis Center
Sat 08:00:14 PM 35.8267 -91.8472 14° North 357 411 35,000  Level Memphis Center
Sat 08:01:14 PM 35.9250 -91.8181 14° North 357 411 35,000  Level Memphis Center
Sat 08:02:14 PM 36.0211 -91.7917 13° North 346 398 35,000  Level Memphis Center
Sat 08:03:14 PM 36.1194 -91.7625 13° North 351 404 35,000 -50 Level Memphis Center
Sat 08:04:14 PM 36.2197 -91.7358 12° North 356 410 34,900  Descending Memphis Center
Sat 08:05:14 PM 36.3161 -91.7067 14° North 356 410 35,000 50 Climbing Memphis Center
Sat 08:06:14 PM 36.4164 -91.6747 14° North 356 410 35,000  Level Memphis Center
Sat 08:07:14 PM 36.5147 -91.6453 14° North 356 410 35,000  Level Memphis Center
Sat 08:08:14 PM 36.6108 -91.6158 14° North 361 415 35,000  Level Memphis Center
Sat 08:08:56 PM 36.6744 -91.5939 15° North 361 415 35,000  Level Kansas City Center
Sat 08:09:57 PM 36.7728 -91.5644 13° North 361 415 35,000  Level Kansas City Center
Sat 08:10:59 PM 36.8692 -91.5361 13° North 358 412 35,000  Level Kansas City Center
Sat 08:12:00 PM 36.9669 -91.5078 13° North 357 411 35,000  Level Kansas City Center
Sat 08:13:01 PM 37.0644 -91.4778 14° North 361 415 35,000  Level Kansas City Center
Sat 08:14:03 PM 37.1814 -91.4419 14° North 360 414 35,000  Level Kansas City Center
Sat 08:15:04 PM 37.2778 -91.4119 14° North 359 413 35,000 -49 Level Kansas City Center
Sat 08:16:05 PM 37.3736 -91.3833 13° North 357 411 34,900  Descending Kansas City Center
Sat 08:17:07 PM 37.4708 -91.3525 14° North 357 411 35,000 49 Climbing Kansas City Center
Sat 08:18:08 PM 37.5672 -91.3239 13° North 357 411 35,000  Level Kansas City Center
Sat 08:19:09 PM 37.6636 -91.2947 13° North 357 411 35,000  Level Kansas City Center
Sat 08:20:11 PM 37.7614 -91.2633 14° North 358 412 35,000  Level Kansas City Center
Sat 08:21:12 PM 37.8578 -91.2339 14° North 358 412 35,000  Level Kansas City Center
Sat 08:22:13 PM 37.9561 -91.2025 14° North 360 414 35,000  Level Kansas City Center
Sat 08:23:14 PM 38.0550 -91.1725 13° North 362 417 35,000  Level Kansas City Center
Sat 08:24:16 PM 38.1719 -91.1358 14° North 364 419 35,000  Level Kansas City Center
Sat 08:25:17 PM 38.2722 -91.1053 13° North 366 421 35,000  Level Kansas City Center
Sat 08:26:18 PM 38.3719 -91.0742 14° North 367 422 35,000  Level Kansas City Center
Sat 08:27:20 PM 38.4725 -91.0428 14° North 368 423 35,000  Level Kansas City Center
Sat 08:28:21 PM 38.5719 -91.0108 14° North 369 425 35,000  Level Kansas City Center
Sat 08:29:22 PM 38.6717 -90.9789 14° North 368 423 35,000  Level Kansas City Center
Sat 08:30:23 PM 38.7722 -90.9483 13° North 368 423 35,000  Level Kansas City Center
Sat 08:31:25 PM 38.8681 -90.9019 21° North 367 422 35,000  Level Kansas City Center
Sat 08:32:26 PM 38.9622 -90.8494 23° Northeast 366 421 35,000  Level Kansas City Center
Sat 08:33:27 PM 39.0561 -90.7967 24° Northeast 366 421 35,000  Level Kansas City Center
Sat 08:34:29 PM 39.1514 -90.7444 23° Northeast 368 423 35,000 -244 Level Kansas City Center
Sat 08:35:30 PM 39.2472 -90.6911 23° Northeast 371 427 34,500 -738 Descending Kansas City Center
Sat 08:36:31 PM 39.3406 -90.6381 24° Northeast 368 423 33,500 -1,082 Descending Kansas City Center
Sat 08:37:32 PM 39.4531 -90.5747 23° Northeast 367 422 32,300 -1,073 Descending Kansas City Center
Sat 08:38:34 PM 39.5447 -90.5225 24° Northeast 362 417 31,300 -634 Descending Kansas City Center
Sat 08:39:35 PM 39.6381 -90.4708 23° Northeast 363 418 31,000 -148 Descending Kansas City Center
Sat 08:40:36 PM 39.7303 -90.4181 24° Northeast 363 418 31,000  Level Kansas City Center
Sat 08:41:37 PM 39.8278 -90.3631 23° Northeast 361 415 31,000  Level Kansas City Center
Sat 08:42:39 PM 39.9206 -90.3094 24° Northeast 364 419 31,000  Level Kansas City Center
Sat 08:43:40 PM 40.0139 -90.2564 24° Northeast 366 421 31,000  Level Kansas City Center
Sat 08:44:41 PM 40.1069 -90.2025 24° Northeast 366 421 31,000  Level Kansas City Center
Sat 08:45:42 PM 40.2003 -90.1494 23° Northeast 366 421 31,000  Level Kansas City Center
Sat 08:46:44 PM 40.2983 -90.0922 24° Northeast 381 438 31,000  Level Kansas City Center
Sat 08:47:45 PM 40.3986 -90.0353 23° Northeast 390 449 31,000  Level Kansas City Center
Sat 08:48:46 PM 40.4978 -89.9769 24° Northeast 390 449 31,000 -393 Level Kansas City Center
Sat 08:49:47 PM 40.6111 -89.9111 24° Northeast 390 449 30,200 -1,082 Descending Kansas City Center
Sat 08:50:48 PM 40.7031 -89.8358 32° Northeast 393 452 28,800 -1,366 Descending Kansas City Center
Sat 08:51:50 PM 40.7750 -89.7269 49° Northeast 414 476 27,400 -1,422 Descending Kansas City Center
Sat 08:53:03 PM 40.8658 -89.6036 46° Northeast 380 437 25,600 -1,378 Descending Chicago Center
Sat 08:54:05 PM 40.9319 -89.5139 46° Northeast 369 425 24,300 -780 Descending Chicago Center
Sat 08:55:06 PM 41.0028 -89.4175 46° Northeast 367 422 24,000 -634 Descending Chicago Center
Sat 08:56:08 PM 41.0736 -89.3217 46° Northeast 366 421 23,000 -1,756 Descending Chicago Center
Sat 08:57:09 PM 41.1553 -89.2078 46° Northeast 358 412 20,400 -2,439 Descending Chicago Center
Sat 08:58:11 PM 41.2278 -89.1069 46° Northeast 360 414 18,000 -2,126 Descending Chicago Center
Sat 08:59:16 PM 41.2939 -89.0142 47° Northeast 349 402 15,900 -2,000 Descending Chicago Center
Sat 09:00:17 PM 41.3597 -88.9217 47° Northeast 349 402 13,800 -2,000 Descending Chicago Center
Sat 09:01:19 PM 41.4236 -88.8333 46° Northeast 337 388 11,800 -1,355 Descending Chicago Center
Sat 09:02:21 PM 41.4850 -88.7483 46° Northeast 322 371 11,000 -390 Descending Chicago Center
Sat 09:03:22 PM 41.5350 -88.6486 56° Northeast 276 318 11,000  Level Chicago Center
Sat 09:04:24 PM 41.5714 -88.5564 62° Northeast 281 323 11,000  Level Chicago Center
Sat 09:05:25 PM 41.6086 -88.4669 61° Northeast 279 321 11,000 -634 Level Chicago Center
Sat 09:06:27 PM 41.6564 -88.3850 52° Northeast 278 320 9,700 -1,415 Descending Chicago Center
Sat 09:07:28 PM 41.7331 -88.3697 North 295 339 8,100 -927 Descending Chicago Center
Sat 09:08:30 PM 41.8092 -88.3769 356° North 273 314 7,800 -439 Descending Chicago Center
Sat 09:09:31 PM 41.8747 -88.3822 357° North 238 274 7,200 -878 Descending Chicago Center
Sat 09:10:33 PM 41.9328 -88.3883 356° North 215 247 6,000 -1,016 Descending Chicago Center
Sat 09:11:35 PM 41.9661 -88.3358 49° Northeast 177 204 5,100 -488 Descending Chicago Center
Sat 09:12:36 PM 41.9675 -88.2697 88° East 170 196 5,000 -195 Descending Chicago Center
Sat 09:13:38 PM 41.9675 -88.2058 90° East 174 200 4,700 -290 Descending Chicago Center

Login

Don't have an account? Register now (free) for customized features, flight alerts, and more!